createdAt,value
2022-12-12T00:01:31.507Z,-0.53
2022-12-12T00:03:59.274Z,-0.53
2022-12-12T00:06:28.545Z,-0.56
2022-12-12T00:08:56.290Z,-0.56
2022-12-12T00:11:25.297Z,-0.58
2022-12-12T00:13:54.252Z,-0.59
2022-12-12T00:16:23.964Z,-0.65
2022-12-12T00:18:52.259Z,-0.70
2022-12-12T00:21:22.346Z,-0.73
2022-12-12T00:23:50.028Z,-0.75
2022-12-12T00:26:21.363Z,-0.75
2022-12-12T00:28:49.314Z,-0.78
2022-12-12T00:31:17.492Z,-0.76
2022-12-12T00:33:49.900Z,-0.75
2022-12-12T00:36:19.304Z,-0.75
2022-12-12T00:38:46.994Z,-0.77
2022-12-12T00:41:14.664Z,-0.80
2022-12-12T00:43:42.616Z,-0.76
2022-12-12T00:46:12.180Z,-0.75
2022-12-12T00:48:39.768Z,-0.75
2022-12-12T00:51:10.928Z,-0.75
2022-12-12T00:53:39.354Z,-0.81
2022-12-12T00:56:07.603Z,-0.83
2022-12-12T00:58:35.307Z,-0.87
2022-12-12T01:01:06.315Z,-0.95
2022-12-12T01:03:34.587Z,-1.04
2022-12-12T01:06:02.247Z,-1.10
2022-12-12T01:08:31.174Z,-1.15
2022-12-12T01:10:58.773Z,-1.20
2022-12-12T01:13:26.969Z,-1.24
2022-12-12T01:15:54.634Z,-1.28
2022-12-12T01:18:22.856Z,-1.34
2022-12-12T01:20:50.450Z,-1.38
2022-12-12T01:23:17.962Z,-1.41
2022-12-12T01:25:46.856Z,-1.43
2022-12-12T01:28:14.577Z,-1.52
2022-12-12T01:30:42.289Z,-1.59
2022-12-12T01:33:09.904Z,-1.63
2022-12-12T01:35:37.456Z,-1.71
2022-12-12T01:38:05.029Z,-1.75
2022-12-12T01:40:32.624Z,-1.84
2022-12-12T01:43:01.618Z,-1.86
2022-12-12T01:46:25.554Z,-1.91
2022-12-12T01:48:57.370Z,-2.05
2022-12-12T01:51:28.255Z,-2.11
2022-12-12T01:54:05.125Z,-2.16
2022-12-12T01:56:33.987Z,-2.18
2022-12-12T01:59:05.854Z,-2.25
2022-12-12T02:01:33.629Z,-2.30
2022-12-12T02:04:03.018Z,-2.35
2022-12-12T02:06:31.424Z,-2.41
2022-12-12T02:09:02.147Z,-2.48
2022-12-12T02:11:30.373Z,-2.53
2022-12-12T02:14:00.029Z,-2.53
2022-12-12T02:16:42.118Z,-2.58
2022-12-12T02:19:49.773Z,-2.64
2022-12-12T02:22:34.135Z,-2.63
2022-12-12T02:25:17.446Z,-2.64
2022-12-12T02:28:08.813Z,-2.70
2022-12-12T02:30:44.306Z,-2.74
2022-12-12T02:33:28.076Z,-2.76
2022-12-12T02:36:05.232Z,-2.79
2022-12-12T02:38:43.103Z,-2.83
2022-12-12T02:41:18.925Z,-2.92
2022-12-12T02:43:57.603Z,-2.94
2022-12-12T02:46:29.265Z,-2.99
2022-12-12T02:49:03.876Z,-3.03
2022-12-12T02:51:34.055Z,-3.02
2022-12-12T02:54:01.750Z,-2.99
2022-12-12T02:56:46.187Z,-3.00
2022-12-12T02:59:18.273Z,-2.99
2022-12-12T03:01:57.372Z,-3.00
2022-12-12T03:04:48.581Z,-3.05
2022-12-12T03:07:49.338Z,-3.09
2022-12-12T03:10:30.742Z,-3.14
2022-12-12T03:13:05.299Z,-3.20
2022-12-12T03:15:45.513Z,-3.24
2022-12-12T03:18:25.198Z,-3.28
2022-12-12T03:21:03.462Z,-3.29
2022-12-12T03:23:35.558Z,-3.34
2022-12-12T03:26:07.330Z,-3.41
2022-12-12T03:28:38.947Z,-3.46
2022-12-12T03:31:13.077Z,-3.45
2022-12-12T03:33:45.325Z,-3.44
2022-12-12T03:36:18.073Z,-3.49
2022-12-12T03:38:57.166Z,-3.52
2022-12-12T03:41:30.214Z,-3.55
2022-12-12T03:44:03.850Z,-3.60
2022-12-12T03:46:38.003Z,-3.61
2022-12-12T03:49:13.679Z,-3.59
2022-12-12T03:51:49.459Z,-3.59
2022-12-12T03:54:21.928Z,-3.59
2022-12-12T03:56:55.496Z,-3.63
2022-12-12T03:59:27.868Z,-3.66
2022-12-12T04:02:00.872Z,-3.73
2022-12-12T04:04:35.016Z,-3.73
2022-12-12T04:07:14.715Z,-3.77
2022-12-12T04:10:01.378Z,-3.81
2022-12-12T04:12:53.790Z,-3.86
2022-12-12T04:15:40.921Z,-3.90
2022-12-12T04:18:17.114Z,-3.92
2022-12-12T04:21:05.992Z,-3.99
2022-12-12T04:23:42.211Z,-4.02
2022-12-12T04:26:34.865Z,-4.05
2022-12-12T04:29:10.308Z,-4.06
2022-12-12T04:31:42.121Z,-4.10
2022-12-12T04:34:15.882Z,-4.11
2022-12-12T04:36:48.008Z,-4.15
2022-12-12T04:39:21.372Z,-4.16
2022-12-12T04:41:51.395Z,-4.21
2022-12-12T04:44:21.392Z,-4.24
2022-12-12T04:46:53.542Z,-4.24
2022-12-12T04:49:25.117Z,-4.27
2022-12-12T04:51:56.843Z,-4.29
2022-12-12T04:54:31.125Z,-4.32
2022-12-12T04:57:03.927Z,-4.28
2022-12-12T04:59:31.794Z,-4.32
2022-12-12T05:02:05.135Z,-4.42
2022-12-12T05:04:41.479Z,-4.52
2022-12-12T05:07:13.772Z,-4.52
2022-12-12T05:09:43.686Z,-4.56
2022-12-12T05:12:11.408Z,-4.58
2022-12-12T05:14:38.966Z,-4.56
2022-12-12T05:17:10.636Z,-4.52
2022-12-12T05:19:38.187Z,-4.53
2022-12-12T05:22:05.718Z,-4.56
2022-12-12T05:24:33.257Z,-4.60
2022-12-12T05:27:02.278Z,-4.59
2022-12-12T05:29:29.853Z,-4.62
2022-12-12T05:31:57.742Z,-4.60
2022-12-12T05:34:25.704Z,-4.59
2022-12-12T05:36:53.370Z,-4.57
2022-12-12T05:39:20.946Z,-4.48
2022-12-12T05:41:48.521Z,-4.30
2022-12-12T05:44:17.427Z,-4.13
2022-12-12T05:46:45.523Z,-3.96
2022-12-12T05:49:13.088Z,-3.78
2022-12-12T05:51:40.682Z,-3.61
2022-12-12T05:54:08.324Z,-3.58
2022-12-12T05:56:35.866Z,-3.44
2022-12-12T05:59:03.714Z,-3.29
2022-12-12T06:01:32.704Z,-3.15
2022-12-12T06:04:00.303Z,-3.18
2022-12-12T06:06:27.888Z,-3.31
2022-12-12T06:08:55.462Z,-3.35
2022-12-12T06:11:23.048Z,-3.52
2022-12-12T06:13:50.649Z,-3.68
2022-12-12T06:16:21.176Z,-3.70
2022-12-12T06:18:54.435Z,-3.57
2022-12-12T06:21:22.085Z,-3.55
2022-12-12T06:23:49.856Z,-3.68
2022-12-12T06:26:19.278Z,-3.79
2022-12-12T06:28:47.623Z,-3.85
2022-12-12T06:31:16.616Z,-3.90
2022-12-12T06:33:45.315Z,-3.99
2022-12-12T06:36:19.014Z,-3.89
2022-12-12T06:38:46.633Z,-3.90
2022-12-12T06:41:15.938Z,-3.95
2022-12-12T06:43:43.861Z,-3.94
2022-12-12T06:46:15.387Z,-3.91
2022-12-12T06:48:43.957Z,-4.00
2022-12-12T06:51:16.539Z,-4.01
2022-12-12T06:53:44.274Z,-3.92
2022-12-12T06:56:15.096Z,-3.85
2022-12-12T06:58:42.955Z,-3.91
2022-12-12T07:01:12.521Z,-3.91
2022-12-12T07:03:40.744Z,-3.89
2022-12-12T07:06:08.690Z,-3.86
2022-12-12T07:08:38.257Z,-3.86
2022-12-12T07:11:08.300Z,-3.87
2022-12-12T07:13:36.363Z,-3.89
2022-12-12T07:16:04.084Z,-3.84
2022-12-12T07:18:31.984Z,-3.79
2022-12-12T07:20:59.697Z,-3.90
2022-12-12T07:23:27.258Z,-3.98
2022-12-12T07:25:56.124Z,-3.90
2022-12-12T07:28:23.772Z,-3.85
2022-12-12T07:30:51.437Z,-3.80
2022-12-12T07:33:19.532Z,-3.75
2022-12-12T07:35:47.093Z,-3.76
2022-12-12T07:38:15.612Z,-3.75
2022-12-12T07:40:43.196Z,-3.71
2022-12-12T07:43:12.162Z,-3.72
2022-12-12T07:45:39.791Z,-3.65
2022-12-12T07:48:07.403Z,-3.58
2022-12-12T07:50:35.018Z,-3.57
2022-12-12T07:53:02.589Z,-3.61
2022-12-12T07:55:30.215Z,-3.70
2022-12-12T07:57:57.909Z,-3.57
2022-12-12T08:00:27.189Z,-3.48
2022-12-12T08:02:54.760Z,-3.47
2022-12-12T08:05:22.388Z,-3.43
2022-12-12T08:07:50.334Z,-3.45
2022-12-12T08:10:18.209Z,-3.43
2022-12-12T08:12:45.837Z,-3.43
2022-12-12T08:15:16.436Z,-3.35
2022-12-12T08:17:45.716Z,-3.37
2022-12-12T08:20:13.262Z,-3.33
2022-12-12T08:22:41.610Z,-3.28
2022-12-12T08:25:10.993Z,-3.19
2022-12-12T08:27:38.749Z,-2.75
2022-12-12T08:30:08.432Z,-2.83
2022-12-12T08:32:36.478Z,-2.75
2022-12-12T08:35:06.178Z,-2.69
2022-12-12T08:37:34.117Z,-2.65
2022-12-12T08:40:02.061Z,-2.63
2022-12-12T08:42:29.575Z,-2.61
2022-12-12T08:44:57.120Z,-2.43
2022-12-12T08:47:24.729Z,-2.36
2022-12-12T08:49:52.317Z,-2.32
2022-12-12T08:52:21.226Z,-2.24
2022-12-12T08:54:48.789Z,-2.20
2022-12-12T08:57:17.198Z,-2.18
2022-12-12T08:59:45.931Z,-2.19
2022-12-12T09:02:13.968Z,-2.07
2022-12-12T09:04:41.833Z,-2.05
2022-12-12T09:07:09.473Z,-1.85
2022-12-12T09:09:38.351Z,-1.71
2022-12-12T09:12:06.383Z,-1.99
2022-12-12T09:14:34.276Z,-1.88
2022-12-12T09:17:01.858Z,-1.85
2022-12-12T09:19:29.419Z,-1.71
2022-12-12T09:21:56.958Z,-1.61
2022-12-12T09:24:25.392Z,-1.56
2022-12-12T09:26:54.575Z,-1.60
2022-12-12T09:29:22.122Z,-1.02
2022-12-12T09:31:49.817Z,-1.05
2022-12-12T09:34:17.646Z,-1.04
2022-12-12T09:36:45.162Z,-0.91
2022-12-12T09:39:12.696Z,-0.85
2022-12-12T09:41:40.319Z,-0.97
2022-12-12T09:44:15.939Z,-0.87
2022-12-12T09:46:47.231Z,-0.75
2022-12-12T09:49:18.182Z,-0.59
2022-12-12T09:51:49.091Z,-0.71
2022-12-12T09:54:20.444Z,-0.55
2022-12-12T09:57:05.536Z,-0.40
2022-12-12T09:59:42.087Z,-0.29
2022-12-12T10:02:38.082Z,-0.20
2022-12-12T10:05:14.625Z,-0.05
2022-12-12T10:07:46.485Z,-0.18
2022-12-12T10:10:23.933Z,0.12
2022-12-12T10:12:53.701Z,0.25
2022-12-12T10:15:31.861Z,0.41
2022-12-12T10:18:03.761Z,0.59
2022-12-12T10:20:34.304Z,0.71
2022-12-12T10:23:07.043Z,0.69
2022-12-12T10:25:44.674Z,0.55
2022-12-12T10:28:15.306Z,0.49
2022-12-12T10:30:58.045Z,0.61
2022-12-12T10:33:36.608Z,0.64
2022-12-12T10:36:12.476Z,0.84
2022-12-12T10:38:59.579Z,1.16
2022-12-12T10:41:34.992Z,1.21
2022-12-12T10:44:06.775Z,1.33
2022-12-12T10:46:40.228Z,1.62
2022-12-12T10:49:16.164Z,1.79
2022-12-12T10:51:47.483Z,1.91
2022-12-12T10:54:19.257Z,2.05
2022-12-12T10:57:09.480Z,2.15
2022-12-12T10:59:42.194Z,2.33
2022-12-12T11:02:31.592Z,2.43
2022-12-12T11:05:02.045Z,2.47
2022-12-12T11:07:30.226Z,2.51
2022-12-12T11:10:01.888Z,2.84
2022-12-12T11:12:34.692Z,3.35
2022-12-12T11:15:05.859Z,3.55
2022-12-12T11:17:35.283Z,3.81
2022-12-12T11:20:07.316Z,3.79
2022-12-12T11:22:35.090Z,3.34
2022-12-12T11:25:03.153Z,3.71
2022-12-12T11:27:34.117Z,3.92
2022-12-12T11:30:03.646Z,4.02
2022-12-12T11:32:40.346Z,4.38
2022-12-12T11:35:22.964Z,4.72
2022-12-12T11:37:54.690Z,5.08
2022-12-12T11:40:26.025Z,5.11
2022-12-12T11:43:08.010Z,5.10
2022-12-12T11:45:36.677Z,5.12
2022-12-12T11:48:32.571Z,5.42
2022-12-12T11:51:00.294Z,5.37
2022-12-12T11:53:28.089Z,5.56
2022-12-12T11:56:07.267Z,5.78
2022-12-12T11:58:44.970Z,6.32
2022-12-12T12:01:20.833Z,6.45
2022-12-12T12:04:13.554Z,6.15
2022-12-12T12:06:55.497Z,6.74
2022-12-12T12:09:29.552Z,6.78
2022-12-12T12:12:05.298Z,6.96
2022-12-12T12:14:54.363Z,7.08
2022-12-12T12:17:33.446Z,7.66
2022-12-12T12:20:10.758Z,7.46
2022-12-12T12:22:53.664Z,7.46
2022-12-12T12:25:32.548Z,7.44
2022-12-12T12:28:12.647Z,7.05
2022-12-12T12:30:51.845Z,7.35
2022-12-12T12:33:32.510Z,7.06
2022-12-12T12:36:20.860Z,7.08
2022-12-12T12:38:57.491Z,7.18
2022-12-12T12:41:45.186Z,7.16
2022-12-12T12:44:27.918Z,7.46
2022-12-12T12:47:04.862Z,7.00
2022-12-12T12:49:35.837Z,7.09
2022-12-12T12:52:11.416Z,6.96
2022-12-12T12:54:42.028Z,6.84
2022-12-12T12:57:13.639Z,6.83
2022-12-12T12:59:45.669Z,6.82
2022-12-12T13:02:27.244Z,7.01
2022-12-12T13:05:06.708Z,7.30
2022-12-12T13:07:43.770Z,7.31
2022-12-12T13:10:19.374Z,7.24
2022-12-12T13:12:53.119Z,7.30
2022-12-12T13:15:25.624Z,7.14
2022-12-12T13:18:01.185Z,7.08
2022-12-12T13:20:32.077Z,7.34
2022-12-12T13:23:20.123Z,6.77
2022-12-12T13:25:55.424Z,6.79
2022-12-12T13:28:28.145Z,6.83
2022-12-12T13:31:13.226Z,6.59
2022-12-12T13:33:44.910Z,6.06
2022-12-12T13:36:24.462Z,6.12
2022-12-12T13:38:59.270Z,5.86
2022-12-12T13:41:28.353Z,6.04
2022-12-12T13:43:58.152Z,6.46
2022-12-12T13:46:44.556Z,6.80
2022-12-12T13:49:24.856Z,6.89
2022-12-12T13:51:52.442Z,6.75
2022-12-12T13:55:11.028Z,6.92
2022-12-12T13:58:16.661Z,6.79
2022-12-12T14:00:44.308Z,6.87
2022-12-12T14:03:28.759Z,6.45
2022-12-12T14:06:10.314Z,6.80
2022-12-12T14:08:40.003Z,7.02
2022-12-12T14:11:15.176Z,6.83
2022-12-12T14:13:50.685Z,6.41
2022-12-12T14:16:22.826Z,6.57
2022-12-12T14:19:38.152Z,6.20
2022-12-12T14:22:05.760Z,5.65
2022-12-12T14:24:48.213Z,5.60
2022-12-12T14:27:16.082Z,5.25
2022-12-12T14:29:45.828Z,4.93
2022-12-12T14:32:40.831Z,4.83
2022-12-12T14:35:28.983Z,4.52
2022-12-12T14:38:04.896Z,4.11
2022-12-12T14:40:34.263Z,3.80
2022-12-12T14:43:19.174Z,3.37
2022-12-12T14:45:58.211Z,3.20
2022-12-12T14:48:29.676Z,3.07
2022-12-12T14:51:06.186Z,3.08
2022-12-12T14:53:43.987Z,2.81
2022-12-12T14:56:13.937Z,2.65
2022-12-12T14:58:44.146Z,2.47
2022-12-12T15:01:13.650Z,2.19
2022-12-12T15:03:45.502Z,1.91
2022-12-12T15:06:28.598Z,1.77
2022-12-12T15:08:57.397Z,1.65
2022-12-12T15:11:27.075Z,1.44
2022-12-12T15:13:56.315Z,1.28
2022-12-12T15:16:30.766Z,1.26
2022-12-12T15:19:00.834Z,1.15
2022-12-12T15:21:31.918Z,1.06
2022-12-12T15:23:59.719Z,0.97
2022-12-12T15:26:30.006Z,0.85
2022-12-12T15:28:58.032Z,0.78
2022-12-12T15:31:27.684Z,0.73
2022-12-12T15:33:55.290Z,0.68
2022-12-12T15:36:27.566Z,0.63
2022-12-12T15:39:15.490Z,0.55
2022-12-12T15:41:44.263Z,0.48
2022-12-12T15:44:18.314Z,0.43
2022-12-12T15:46:50.228Z,0.34
2022-12-12T15:49:38.764Z,0.25
2022-12-12T15:52:13.144Z,0.20
2022-12-12T15:54:47.288Z,-0.01
2022-12-12T15:57:17.758Z,-0.15
2022-12-12T15:59:45.698Z,-0.18
2022-12-12T16:02:29.391Z,-0.20
2022-12-12T16:05:04.938Z,-0.25
2022-12-12T16:07:37.435Z,-0.32
2022-12-12T16:10:21.473Z,-0.37
2022-12-12T16:13:03.346Z,-0.48
2022-12-12T16:15:34.950Z,-0.58
2022-12-12T16:18:07.893Z,-0.60
2022-12-12T16:20:36.100Z,-0.64
2022-12-12T16:23:17.652Z,-0.63
2022-12-12T16:25:45.261Z,-0.69
2022-12-12T16:28:25.656Z,-0.73
2022-12-12T16:30:56.624Z,-0.83
2022-12-12T16:33:29.940Z,-0.94
2022-12-12T16:36:00.338Z,-0.99
2022-12-12T16:38:29.204Z,-1.05
2022-12-12T16:40:59.928Z,-1.13
2022-12-12T16:43:28.573Z,-1.17
2022-12-12T16:45:58.040Z,-1.20
2022-12-12T16:48:33.429Z,-1.24
2022-12-12T16:51:04.546Z,-1.28
2022-12-12T16:53:32.086Z,-1.34
2022-12-12T16:56:02.253Z,-1.34
2022-12-12T16:58:30.097Z,-1.37
2022-12-12T17:00:58.915Z,-1.40
2022-12-12T17:03:28.164Z,-1.56
2022-12-12T17:05:55.695Z,-1.62
2022-12-12T17:08:23.816Z,-1.66
2022-12-12T17:10:53.344Z,-1.62
2022-12-12T17:13:38.788Z,-1.64
2022-12-12T17:16:06.642Z,-1.66
2022-12-12T17:18:35.649Z,-1.66
2022-12-12T17:21:03.246Z,-1.68
2022-12-12T17:23:30.834Z,-1.70
2022-12-12T17:26:03.897Z,-1.74
2022-12-12T17:28:33.679Z,-1.77
2022-12-12T17:31:02.004Z,-1.84
2022-12-12T17:33:30.111Z,-1.86
2022-12-12T17:36:00.865Z,-1.92
2022-12-12T17:38:30.169Z,-1.94
2022-12-12T17:40:58.153Z,-2.00
2022-12-12T17:43:26.261Z,-2.10
2022-12-12T17:46:01.702Z,-2.09
2022-12-12T17:48:31.020Z,-2.13
2022-12-12T17:51:03.290Z,-2.15
2022-12-12T17:53:36.459Z,-2.19
2022-12-12T17:56:07.608Z,-2.23
2022-12-12T17:58:36.148Z,-2.32
2022-12-12T18:01:10.494Z,-2.39
2022-12-12T18:03:38.306Z,-2.46
2022-12-12T18:06:08.326Z,-2.54
2022-12-12T18:08:36.101Z,-2.58
2022-12-12T18:11:07.377Z,-2.62
2022-12-12T18:13:35.038Z,-2.69
2022-12-12T18:16:03.091Z,-2.74
2022-12-12T18:18:30.749Z,-2.77
2022-12-12T18:21:03.905Z,-2.79
2022-12-12T18:23:32.953Z,-2.81
2022-12-12T18:26:04.651Z,-2.79
2022-12-12T18:28:32.271Z,-2.81
2022-12-12T18:30:59.961Z,-2.85
2022-12-12T18:33:27.535Z,-2.90
2022-12-12T18:36:01.936Z,-2.91
2022-12-12T18:38:29.950Z,-2.92
2022-12-12T18:40:59.153Z,-2.96
2022-12-12T18:43:27.614Z,-2.98
2022-12-12T18:45:55.863Z,-2.98
2022-12-12T18:48:23.722Z,-3.00
2022-12-12T18:50:51.261Z,-3.07
2022-12-12T18:53:18.915Z,-3.09
2022-12-12T18:55:46.498Z,-3.15
2022-12-12T18:58:15.391Z,-3.17
2022-12-12T19:00:42.986Z,-3.18
2022-12-12T19:03:10.699Z,-3.28
2022-12-12T19:05:41.654Z,-3.34
2022-12-12T19:08:09.323Z,-3.37
2022-12-12T19:10:37.091Z,-3.39
2022-12-12T19:13:05.415Z,-3.42
2022-12-12T19:15:35.245Z,-3.48
2022-12-12T19:18:02.785Z,-3.54
2022-12-12T19:20:30.364Z,-3.55
2022-12-12T19:22:57.918Z,-3.55
2022-12-12T19:25:25.541Z,-3.59
2022-12-12T19:27:53.130Z,-3.59
2022-12-12T19:30:21.060Z,-3.65
2022-12-12T19:32:50.014Z,-3.73
2022-12-12T19:35:17.638Z,-3.74
2022-12-12T19:37:45.325Z,-3.74
2022-12-12T19:40:13.872Z,-3.79
2022-12-12T19:42:41.660Z,-3.82
2022-12-12T19:45:10.730Z,-3.85
2022-12-12T19:47:38.326Z,-3.86
2022-12-12T19:50:07.937Z,-3.89
2022-12-12T19:52:35.458Z,-3.89
2022-12-12T19:55:03.031Z,-3.91
2022-12-12T19:57:31.323Z,-3.92
2022-12-12T19:59:58.871Z,-3.98
2022-12-12T20:02:26.593Z,-3.92
2022-12-12T20:04:54.119Z,-3.82
2022-12-12T20:07:23.096Z,-3.89
2022-12-12T20:09:50.698Z,-3.94
2022-12-12T20:12:18.261Z,-3.99
2022-12-12T20:14:46.060Z,-4.02
2022-12-12T20:17:13.937Z,-4.07
2022-12-12T20:19:42.368Z,-4.11
2022-12-12T20:22:10.043Z,-4.12
2022-12-12T20:24:39.730Z,-4.15
2022-12-12T20:27:08.812Z,-4.16
2022-12-12T20:29:36.920Z,-4.16
2022-12-12T20:32:04.888Z,-4.19
2022-12-12T20:34:32.450Z,-4.25
2022-12-12T20:37:00.000Z,-4.30
2022-12-12T20:39:27.799Z,-4.31
2022-12-12T20:41:57.642Z,-4.36
2022-12-12T20:44:25.965Z,-4.35
2022-12-12T20:46:54.024Z,-4.39
2022-12-12T20:49:24.461Z,-4.40
2022-12-12T20:51:55.824Z,-4.43
2022-12-12T20:54:25.754Z,-4.41
2022-12-12T20:56:53.878Z,-4.44
2022-12-12T20:59:23.644Z,-4.49
2022-12-12T21:01:51.822Z,-4.51
2022-12-12T21:04:19.550Z,-4.52
2022-12-12T21:06:49.362Z,-4.53
2022-12-12T21:09:23.900Z,-4.56
2022-12-12T21:11:53.014Z,-4.54
2022-12-12T21:14:20.657Z,-4.55
2022-12-12T21:16:49.634Z,-4.52
2022-12-12T21:19:18.618Z,-4.59
2022-12-12T21:21:46.347Z,-4.59
2022-12-12T21:24:15.192Z,-4.61
2022-12-12T21:26:42.872Z,-4.63
2022-12-12T21:29:10.583Z,-4.66
2022-12-12T21:31:48.283Z,-4.68
2022-12-12T21:34:19.434Z,-4.72
2022-12-12T21:36:47.040Z,-4.72
2022-12-12T21:39:14.772Z,-4.73
2022-12-12T21:41:43.749Z,-4.69
2022-12-12T21:44:11.694Z,-4.39
2022-12-12T21:46:41.728Z,-4.16
2022-12-12T21:49:26.271Z,-4.29
2022-12-12T21:51:57.249Z,-4.40
2022-12-12T21:54:25.767Z,-4.51
2022-12-12T21:56:55.645Z,-4.59
2022-12-12T21:59:24.431Z,-4.60
2022-12-12T22:01:52.523Z,-4.63
2022-12-12T22:04:20.161Z,-4.63
2022-12-12T22:06:47.840Z,-4.66
2022-12-12T22:09:16.702Z,-4.67
2022-12-12T22:11:48.325Z,-4.69
2022-12-12T22:14:21.312Z,-4.65
2022-12-12T22:16:49.515Z,-4.63
2022-12-12T22:19:18.125Z,-4.58
2022-12-12T22:21:47.300Z,-4.54
2022-12-12T22:24:16.995Z,-4.54
2022-12-12T22:26:46.328Z,-4.51
2022-12-12T22:29:15.883Z,-4.50
2022-12-12T22:31:44.513Z,-4.43
2022-12-12T22:34:15.447Z,-4.37
2022-12-12T22:36:43.080Z,-4.33
2022-12-12T22:39:14.829Z,-4.35
2022-12-12T22:41:43.701Z,-4.33
2022-12-12T22:44:14.276Z,-4.34
2022-12-12T22:46:44.155Z,-4.36
2022-12-12T22:49:13.221Z,-4.34
2022-12-12T22:51:40.867Z,-4.34
2022-12-12T22:54:08.505Z,-4.36
2022-12-12T22:56:37.678Z,-4.36
2022-12-12T22:59:07.410Z,-4.36
2022-12-12T23:01:35.612Z,-4.25
2022-12-12T23:04:03.398Z,-4.07
2022-12-12T23:06:32.593Z,-4.07
2022-12-12T23:09:02.358Z,-4.14
2022-12-12T23:11:31.533Z,-4.24
2022-12-12T23:14:02.039Z,-4.31
2022-12-12T23:16:31.633Z,-4.38
2022-12-12T23:18:59.917Z,-4.37
2022-12-12T23:21:27.823Z,-4.40
2022-12-12T23:23:56.351Z,-4.43
2022-12-12T23:26:25.721Z,-4.50
2022-12-12T23:28:53.879Z,-4.52
2022-12-12T23:31:24.161Z,-4.58
2022-12-12T23:33:55.546Z,-4.63
2022-12-12T23:36:24.134Z,-4.66
2022-12-12T23:38:55.650Z,-4.72
2022-12-12T23:41:23.587Z,-4.73
2022-12-12T23:43:51.897Z,-4.78
2022-12-12T23:46:29.208Z,-4.77
2022-12-12T23:48:59.412Z,-4.75
2022-12-12T23:51:28.661Z,-4.73
2022-12-12T23:53:57.785Z,-4.75
2022-12-12T23:56:25.792Z,-4.73
2022-12-12T23:58:53.682Z,-4.74
